Time;durP1;ratioP1;P1;durP2;ratioP2;P2;SDS_P1;SDS_P2;PMS_P1;PMS_P2;Temp;Humidity;BMP_temperature;BMP_pressure;BME280_temperature;BME280_humidity;BME280_pressure;Samples;Min_cycle;Max_cycle;Signal;HPM_P1;HPM_P2
2022/03/22 00:03:46;;;;;;;0.00;0.00;;;;;;;19.33;33.30;102998.22;10519228;28;20061;-78
2022/03/22 00:08:48;;;;;;;0.00;0.00;;;;;;;19.41;33.27;102994.91;10517254;28;20079;-78
2022/03/22 00:13:49;;;;;;;0.00;0.00;;;;;;;21.98;28.39;102986.22;10538523;28;20080;-78
2022/03/22 00:18:51;;;;;;;0.00;0.00;;;;;;;21.50;29.43;102991.72;10537459;28;20124;-78
2022/03/22 00:23:54;;;;;;;0.00;0.00;;;;;;;21.49;28.56;102999.56;10535789;28;20048;-78
2022/03/22 00:28:57;;;;;;;0.00;0.00;;;;;;;21.64;29.16;102985.78;10518560;28;20058;-78
2022/03/22 00:34:03;;;;;;;5.28;2.92;;;;;;;21.29;29.77;102994.03;10513324;28;20399;-78
2022/03/22 00:39:05;;;;;;;0.00;0.00;;;;;;;21.63;29.23;102991.94;10534718;28;20095;-77
2022/03/22 00:44:06;;;;;;;0.00;0.00;;;;;;;21.58;29.08;102998.84;10536854;28;20441;-78
2022/03/22 00:49:08;;;;;;;0.00;0.00;;;;;;;21.56;28.42;102997.03;10542015;28;20083;-78
2022/03/22 00:54:09;;;;;;;0.00;0.00;;;;;;;21.39;29.22;103001.19;10525652;28;20105;-78
2022/03/22 01:04:31;;;;;;;0.00;0.00;;;;;;;21.73;28.43;103004.28;10559753;28;20156;-76
2022/03/22 01:09:32;;;;;;;0.00;0.00;;;;;;;20.92;29.90;103000.50;10513648;28;20068;-79
2022/03/22 01:14:34;;;;;;;0.30;0.30;;;;;;;20.49;30.89;103006.69;10525738;28;20101;-77
2022/03/22 01:19:37;;;;;;;0.00;0.00;;;;;;;21.40;28.24;102995.09;10543747;28;20490;-78
2022/03/22 01:24:38;;;;;;;0.00;0.00;;;;;;;21.38;29.29;102999.41;10527746;28;20590;-78
2022/03/22 01:29:40;;;;;;;0.00;0.00;;;;;;;20.32;30.25;102999.44;10515360;28;20040;-77
2022/03/22 01:34:46;;;;;;;0.00;0.00;;;;;;;20.46;30.23;103002.28;10545273;28;20036;-77
2022/03/22 01:39:48;;;;;;;0.00;0.00;;;;;;;19.16;31.85;103010.03;10533786;28;20460;-78
2022/03/22 01:44:49;;;;;;;0.00;0.00;;;;;;;18.38;33.62;103005.44;10513011;28;20067;-77
2022/03/22 01:49:52;;;;;;;0.00;0.00;;;;;;;20.01;31.32;103008.41;10536612;28;20072;-77
2022/03/22 01:54:55;;;;;;;0.00;0.00;;;;;;;21.53;28.61;102991.78;10541783;28;20066;-78
2022/03/22 01:59:57;;;;;;;0.00;0.00;;;;;;;21.39;28.76;102990.69;10541045;28;20086;-78
2022/03/22 02:10:20;;;;;;;0.00;0.00;;;;;;;21.95;27.80;102979.19;10523425;28;20063;-77
2022/03/22 02:15:22;;;;;;;0.00;0.00;;;;;;;21.97;28.32;102976.59;10556983;28;20044;-77
2022/03/22 02:20:23;;;;;;;0.38;0.38;;;;;;;20.87;29.62;102978.59;10523174;28;20040;-77
2022/03/22 02:25:25;;;;;;;0.00;0.00;;;;;;;18.05;34.16;102981.91;10539788;28;20044;-77
2022/03/22 02:30:27;;;;;;;0.00;0.00;;;;;;;20.42;30.55;102974.31;10521588;28;20047;-77
2022/03/22 02:35:29;;;;;;;0.00;0.00;;;;;;;20.27;29.97;102981.03;10517113;28;20071;-77
2022/03/22 02:40:31;;;;;;;0.00;0.00;;;;;;;19.71;31.23;102976.41;10522373;28;20052;-76
2022/03/22 02:45:33;;;;;;;0.00;0.00;;;;;;;20.13;30.92;102972.91;10540200;28;20103;-77
2022/03/22 02:51:01;;;;;;;0.00;0.00;;;;;;;20.26;30.79;102979.25;10539880;28;20043;-77
2022/03/22 02:56:03;;;;;;;0.00;0.00;;;;;;;19.63;31.57;102978.84;10539632;28;20513;-78
2022/03/22 03:01:04;;;;;;;0.00;0.00;;;;;;;19.00;32.87;102977.41;10554019;28;20126;-79
2022/03/22 03:06:06;;;;;;;0.00;0.00;;;;;;;19.47;31.29;102989.84;10518506;28;20433;-76
2022/03/22 03:11:08;;;;;;;0.17;0.17;;;;;;;20.19;30.05;102986.94;10521247;28;20097;-78
2022/03/22 03:16:12;;;;;;;0.00;0.00;;;;;;;20.60;29.70;102984.22;10517388;28;20449;-78
2022/03/22 03:21:13;;;;;;;0.00;0.00;;;;;;;20.38;29.94;102994.31;10520883;28;20048;-78
2022/03/22 03:26:15;;;;;;;0.10;0.10;;;;;;;20.27;30.10;102991.50;10492571;28;20052;-78
2022/03/22 03:31:17;;;;;;;0.00;0.00;;;;;;;20.24;30.08;102994.03;10512335;28;20064;-78
2022/03/22 03:36:18;;;;;;;0.00;0.00;;;;;;;18.96;32.03;102999.97;10537942;28;20558;-78
2022/03/22 03:52:05;;;;;;;0.00;0.00;;;;;;;18.18;33.41;103006.63;10539088;28;20083;-78
2022/03/22 03:57:07;;;;;;;0.00;0.00;;;;;;;19.73;31.02;103002.56;10537827;28;20059;-79
2022/03/22 04:02:10;;;;;;;0.00;0.00;;;;;;;20.25;29.94;103008.03;10539110;28;20131;-79
2022/03/22 04:07:12;;;;;;;0.00;0.00;;;;;;;20.04;30.05;103011.09;10534307;28;20084;-78
2022/03/22 04:12:19;;;;;;;0.00;0.00;;;;;;;20.29;29.61;103013.31;10536695;28;20063;-78
2022/03/22 04:17:32;;;;;;;0.00;0.00;;;;;;;20.11;30.01;103016.47;10507834;28;20139;-78
2022/03/22 04:22:35;;;;;;;0.00;0.00;;;;;;;19.45;30.55;103022.91;10503329;28;20063;-78
2022/03/22 04:32:57;;;;;;;0.00;0.00;;;;;;;19.85;30.10;103023.78;10525413;28;20054;-78
2022/03/22 04:37:58;;;;;;;0.00;0.00;;;;;;;19.50;30.50;103023.88;10533685;28;20053;-78
2022/03/22 04:43:01;;;;;;;0.00;0.00;;;;;;;18.86;31.80;103029.31;10544538;28;20075;-78
2022/03/22 04:48:02;;;;;;;0.00;0.00;;;;;;;18.55;31.82;103036.34;10527567;28;20123;-78
2022/03/22 04:58:27;;;;;;;0.00;0.00;;;;;;;17.64;33.74;103041.53;10527257;28;20067;-78
2022/03/22 05:03:29;;;;;;;0.00;0.00;;;;;;;18.73;31.91;103040.28;10544592;28;20522;-79
2022/03/22 05:08:32;;;;;;;0.00;0.00;;;;;;;18.44;31.44;103045.56;10544481;28;20097;-78
2022/03/22 05:13:34;;;;;;;0.00;0.00;;;;;;;19.13;30.05;103046.53;10544818;28;20044;-78
2022/03/22 05:18:36;;;;;;;0.00;0.00;;;;;;;17.41;33.63;103047.78;10526535;28;20044;-78
2022/03/22 05:23:38;;;;;;;6.90;6.45;;;;;;;18.13;32.41;103057.78;10542849;28;20566;-78
2022/03/22 05:28:40;;;;;;;0.00;0.00;;;;;;;18.85;30.82;103058.88;10516562;28;20080;-78
2022/03/22 05:33:42;;;;;;;4.80;4.55;;;;;;;18.75;30.65;103064.69;10500528;28;20040;-78
2022/03/22 05:38:48;;;;;;;0.00;0.00;;;;;;;17.61;33.06;103063.16;10504525;28;20109;-78
2022/03/22 05:43:50;;;;;;;0.00;0.00;;;;;;;18.97;30.18;103072.25;10558587;28;20079;-78
2022/03/22 05:48:52;;;;;;;0.00;0.00;;;;;;;19.15;29.90;103066.63;10543612;28;20455;-78
2022/03/22 05:53:53;;;;;;;0.00;0.00;;;;;;;17.17;34.08;103081.75;10525139;28;20067;-78
2022/03/22 05:58:55;;;;;;;0.00;0.00;;;;;;;19.45;29.94;103069.94;10525073;28;20054;-79
2022/03/22 06:03:57;;;;;;;0.00;0.00;;;;;;;19.22;30.30;103072.88;10524898;28;20044;-78
2022/03/22 06:08:58;;;;;;;0.00;0.00;;;;;;;18.94;31.06;103074.81;10524315;28;20135;-78
2022/03/22 06:14:00;;;;;;;0.00;0.00;;;;;;;19.11;30.61;103076.94;10525142;28;20044;-80
2022/03/22 06:19:02;;;;;;;0.03;0.03;;;;;;;19.33;30.32;103076.63;10543137;28;20391;-80
2022/03/22 06:24:03;;;;;;;0.00;0.00;;;;;;;18.87;31.50;103083.31;10524741;28;20415;-80
2022/03/22 06:29:05;;;;;;;0.00;0.00;;;;;;;18.46;32.78;103088.28;10543797;28;20044;-80
2022/03/22 06:34:07;;;;;;;0.00;0.00;;;;;;;20.52;29.72;103080.94;10524583;28;20089;-80
2022/03/22 06:39:08;;;;;;;0.30;0.30;;;;;;;19.55;32.42;103084.09;10524162;28;20131;-80
2022/03/22 06:44:10;;;;;;;0.00;0.00;;;;;;;20.72;30.97;103088.31;10523519;28;20112;-80
2022/03/22 06:49:12;;;;;;;0.00;0.00;;;;;;;21.84;29.12;103080.50;10523681;28;20112;-80
2022/03/22 06:54:13;;;;;;;3.47;3.28;;;;;;;21.52;29.65;103101.91;10524159;28;20048;-80
2022/03/22 06:59:16;;;;;;;1.17;0.55;;;;;;;22.01;30.14;103093.84;10540377;28;20453;-80
2022/03/22 07:04:20;;;;;;;0.00;0.00;;;;;;;22.85;28.87;103097.44;10523932;28;20051;-80
2022/03/22 07:09:22;;;;;;;0.10;0.10;;;;;;;22.72;29.57;103099.97;10541110;28;20139;-80
2022/03/22 07:14:25;;;;;;;0.00;0.00;;;;;;;23.43;28.38;103094.44;10541665;28;20082;-80
2022/03/22 07:19:26;;;;;;;0.52;0.52;;;;;;;23.80;27.09;103099.03;10540779;28;20044;-80
2022/03/22 07:24:28;;;;;;;0.00;0.00;;;;;;;23.43;27.53;103102.34;10523367;28;20048;-81
2022/03/22 07:29:33;;;;;;;1.15;0.70;;;;;;;22.77;26.22;103105.25;10541703;28;20093;-80
2022/03/22 07:34:36;;;;;;;0.00;0.00;;;;;;;23.86;25.62;103109.63;10522846;28;20052;-80
2022/03/22 07:39:37;;;;;;;0.60;0.60;;;;;;;23.78;25.39;103109.56;10541384;28;20060;-80
2022/03/22 07:44:39;;;;;;;18.23;5.68;;;;;;;22.01;26.60;103121.00;10541263;28;20051;-80
2022/03/22 07:55:01;;;;;;;6.80;3.22;;;;;;;21.69;26.26;103123.16;10540020;28;20051;-79
2022/03/22 08:00:04;;;;;;;13.35;6.97;;;;;;;21.84;26.22;103120.75;10521909;28;20044;-79
2022/03/22 08:05:06;;;;;;;16.08;5.75;;;;;;;21.95;26.06;103125.25;10522416;28;20090;-79
2022/03/22 08:10:08;;;;;;;10.68;4.28;;;;;;;22.48;25.63;103132.09;10539559;28;20044;-80
2022/03/22 08:15:10;;;;;;;17.60;8.00;;;;;;;21.84;25.36;103128.63;10521399;28;20048;-79
2022/03/22 08:20:13;;;;;;;15.52;8.65;;;;;;;21.52;25.30;103136.00;10522547;28;20056;-78
2022/03/22 08:25:16;;;;;;;9.80;4.93;;;;;;;22.50;23.87;103136.50;10539132;28;20511;-79
2022/03/22 08:30:21;;;;;;;20.17;9.20;;;;;;;22.27;23.36;103137.94;10539115;28;20074;-78
2022/03/22 08:35:23;;;;;;;12.50;6.45;;;;;;;22.71;22.80;103134.97;10539046;28;20051;-78
2022/03/22 08:40:26;;;;;;;14.07;6.35;;;;;;;23.03;22.84;103131.78;10532180;28;20049;-77
2022/03/22 08:45:28;;;;;;;24.98;5.93;;;;;;;22.49;23.23;103137.38;10532102;28;20494;-77
2022/03/22 08:50:31;;;;;;;18.67;5.75;;;;;;;23.37;22.42;103123.34;10513921;28;20517;-77
2022/03/22 08:55:33;;;;;;;13.20;6.82;;;;;;;23.17;22.47;103128.41;10525743;28;20036;-78
2022/03/22 09:00:37;;;;;;;16.38;5.82;;;;;;;24.26;22.09;103125.59;10511520;28;20090;-78
2022/03/22 09:11:03;;;;;;;12.55;6.80;;;;;;;25.52;20.32;103116.13;10536910;28;20032;-78
2022/03/22 09:16:13;;;;;;;12.77;7.13;;;;;;;24.26;20.37;103117.69;10490798;28;20060;-78
2022/03/22 09:21:16;;;;;;;0.20;0.20;;;;;;;27.58;18.89;103111.41;10536348;28;20044;-79
2022/03/22 09:26:18;;;;;;;3.95;1.90;;;;;;;26.53;20.42;103100.78;10515444;28;20136;-78
2022/03/22 09:31:21;;;;;;;1.45;0.47;;;;;;;28.04;17.86;103102.88;10503706;28;20036;-79
2022/03/22 09:36:23;;;;;;;14.15;5.35;;;;;;;27.84;18.26;103104.03;10519872;28;20470;-79
2022/03/22 09:41:26;;;;;;;18.40;4.97;;;;;;;28.22;17.96;103099.19;10553350;27;20071;-79
2022/03/22 09:46:31;;;;;;;7.22;4.13;;;;;;;26.90;19.94;103111.13;10518533;28;20044;-80
2022/03/22 09:51:45;;;;;;;15.75;8.95;;;;;;;26.27;19.74;103115.00;10520439;28;20054;-79
2022/03/22 09:56:48;;;;;;;1.10;0.98;;;;;;;28.91;17.99;103109.66;10541707;28;20052;-79
2022/03/22 10:01:50;;;;;;;11.93;6.30;;;;;;;28.00;18.44;103106.50;10525820;28;20112;-79
2022/03/22 10:06:57;;;;;;;16.10;7.70;;;;;;;26.95;20.75;103107.53;10536986;28;20040;-78
2022/03/22 10:11:59;;;;;;;12.13;6.03;;;;;;;27.81;19.13;103093.47;10508004;28;20081;-79
2022/03/22 10:17:14;;;;;;;15.45;7.20;;;;;;;28.02;18.53;103088.81;10514254;28;20079;-79
2022/03/22 10:22:23;;;;;;;2.55;1.23;;;;;;;28.70;17.34;103087.88;10549295;28;20516;-80
2022/03/22 10:27:32;;;;;;;3.45;1.73;;;;;;;30.54;17.41;103081.59;10531120;28;20044;-80
2022/03/22 10:32:53;;;;;;;1.15;1.15;;;;;;;31.74;16.28;103076.69;10518926;28;20050;-80
2022/03/22 10:37:56;;;;;;;0.22;0.22;;;;;;;30.94;16.59;103074.41;10519444;28;20044;-80
2022/03/22 10:43:00;;;;;;;0.45;0.40;;;;;;;31.21;17.94;103077.28;10541255;28;20128;-80
2022/03/22 10:48:03;;;;;;;6.38;0.65;;;;;;;31.22;16.03;103075.47;10526519;28;20402;-77
2022/03/22 10:53:05;;;;;;;2.50;1.63;;;;;;;32.49;15.18;103079.75;10547210;28;20494;-79
2022/03/22 10:58:07;;;;;;;11.18;5.63;;;;;;;30.63;16.83;103075.22;10518437;28;20340;-79
2022/03/22 11:03:10;;;;;;;0.55;0.47;;;;;;;32.16;15.31;103072.75;10518617;28;20142;-80
2022/03/22 11:08:13;;;;;;;3.13;1.95;;;;;;;31.54;14.93;103074.56;10508169;28;20047;-79
2022/03/22 11:13:15;;;;;;;11.60;8.60;;;;;;;30.17;16.45;103076.25;10507168;28;20072;-79
2022/03/22 11:18:20;;;;;;;4.65;1.98;;;;;;;32.80;14.61;103074.31;10535093;28;20044;-78
2022/03/22 11:23:27;;;;;;;0.00;0.00;;;;;;;31.06;15.68;103067.00;10530199;28;20044;-78
2022/03/22 11:28:29;;;;;;;1.13;0.95;;;;;;;31.96;15.46;103062.72;10511746;28;20085;-78
2022/03/22 11:38:53;;;;;;;1.35;1.10;;;;;;;33.50;14.40;103054.00;10527743;28;20036;-79
2022/03/22 11:44:06;;;;;;;1.90;1.00;;;;;;;33.22;14.58;103043.44;10511098;28;20481;-78
2022/03/22 11:49:20;;;;;;;3.05;1.70;;;;;;;32.38;15.11;103050.75;10526797;28;20042;-77
2022/03/22 11:54:24;;;;;;;2.55;2.25;;;;;;;32.02;14.94;103048.31;10526527;28;20044;-85
2022/03/22 11:59:26;;;;;;;0.00;0.00;;;;;;;34.04;15.56;103036.81;10506044;28;20040;-79
2022/03/22 12:05:01;;;;;;;9.93;5.53;;;;;;;31.15;16.20;103050.84;10507605;28;20119;-78
2022/03/22 12:10:07;;;;;;;0.52;0.52;;;;;;;33.94;15.76;103025.63;10476638;28;20475;-79
2022/03/22 12:15:11;;;;;;;1.15;0.98;;;;;;;33.18;14.46;103031.13;10516070;28;20037;-79
2022/03/22 12:20:18;;;;;;;0.70;0.63;;;;;;;32.80;14.13;103023.59;10528583;28;20067;-78
2022/03/22 12:25:24;;;;;;;6.45;2.75;;;;;;;33.14;14.92;103014.34;10526694;28;20043;-79
2022/03/22 12:30:37;;;;;;;0.80;0.60;;;;;;;33.16;14.68;103012.50;10513693;28;20325;-77
2022/03/22 12:35:44;;;;;;;0.55;0.55;;;;;;;33.73;14.27;103009.47;10508207;28;20524;-79
2022/03/22 12:40:46;;;;;;;1.80;0.93;;;;;;;32.95;14.11;103007.94;10530690;28;20071;-79
2022/03/22 12:45:49;;;;;;;9.23;1.75;;;;;;;32.06;15.18;103012.63;10514795;28;20116;-79
2022/03/22 12:50:51;;;;;;;0.10;0.10;;;;;;;31.72;14.93;103003.94;10537378;28;20040;-79
2022/03/22 12:55:53;;;;;;;0.90;0.90;;;;;;;31.86;14.44;103000.81;10537965;28;20393;-77
2022/03/22 13:00:54;;;;;;;3.40;1.88;;;;;;;33.59;13.21;102995.78;10518849;28;20384;-78
2022/03/22 13:05:56;;;;;;;15.13;4.10;;;;;;;29.76;16.32;102996.53;10521515;28;20040;-78
2022/03/22 13:16:25;;;;;;;3.20;1.75;;;;;;;31.02;14.78;102981.91;10507416;28;20043;-78
2022/03/22 13:21:33;;;;;;;1.27;1.23;;;;;;;31.80;14.14;102974.38;10529750;28;20403;-77
2022/03/22 13:26:36;;;;;;;4.28;1.98;;;;;;;32.12;13.50;102970.66;10529036;28;20040;-82
2022/03/22 13:31:37;;;;;;;0.05;0.05;;;;;;;32.55;14.51;102965.69;10533352;28;20071;-81
2022/03/22 13:36:39;;;;;;;1.55;1.27;;;;;;;30.38;14.49;102961.41;10513225;28;20036;-80
2022/03/22 13:41:43;;;;;;;0.68;0.68;;;;;;;32.52;13.49;102952.47;10552058;28;20063;-82
2022/03/22 13:46:52;;;;;;;0.52;0.52;;;;;;;32.67;13.30;102947.50;10535261;28;20105;-81
2022/03/22 13:51:54;;;;;;;3.03;1.45;;;;;;;31.82;13.60;102951.22;10515384;28;20294;-81
2022/03/22 13:57:07;;;;;;;1.38;1.27;;;;;;;32.03;13.63;102952.28;10529124;28;20070;-81
2022/03/22 14:02:10;;;;;;;0.00;0.00;;;;;;;32.90;13.36;102942.22;10531886;28;20125;-80
2022/03/22 14:07:12;;;;;;;6.05;3.13;;;;;;;30.67;14.94;102949.16;10524418;28;20057;-81
2022/03/22 14:12:15;;;;;;;1.75;1.17;;;;;;;30.89;14.36;102947.72;10527641;28;20483;-80
2022/03/22 14:17:16;;;;;;;0.55;0.55;;;;;;;31.08;14.17;102943.59;10508655;28;20101;-82
2022/03/22 14:22:19;;;;;;;0.52;0.45;;;;;;;31.59;14.65;102944.78;10514505;28;20622;-81
2022/03/22 14:27:23;;;;;;;0.70;0.63;;;;;;;29.87;16.00;102940.50;10530251;28;20561;-81
2022/03/22 14:32:24;;;;;;;0.30;0.30;;;;;;;31.67;14.97;102938.38;10528465;28;20091;-81
2022/03/22 14:37:26;;;;;;;0.20;0.20;;;;;;;31.43;15.17;102938.19;10526358;28;20048;-80
2022/03/22 14:42:28;;;;;;;1.05;1.05;;;;;;;29.29;15.26;102938.22;10528920;28;20044;-83
2022/03/22 14:47:33;;;;;;;6.85;2.33;;;;;;;29.56;14.56;102930.56;10528487;28;20457;-81
2022/03/22 15:03:16;;;;;;;0.65;0.65;;;;;;;31.23;14.08;102909.50;10521974;28;20097;-80
2022/03/22 15:08:22;;;;;;;0.00;0.00;;;;;;;30.85;13.63;102913.19;10529875;28;20121;-80
2022/03/22 15:13:25;;;;;;;0.35;0.30;;;;;;;29.48;15.92;102911.28;10513674;28;20044;-79
2022/03/22 15:18:28;;;;;;;0.17;0.17;;;;;;;29.57;15.66;102906.63;10522638;28;20499;-79
2022/03/22 15:23:32;;;;;;;0.55;0.55;;;;;;;29.69;16.01;102900.16;10526046;28;20075;-80
2022/03/22 15:28:35;;;;;;;0.93;0.85;;;;;;;30.54;14.17;102891.91;10518586;28;20059;-80
2022/03/22 15:33:38;;;;;;;0.00;0.00;;;;;;;30.05;14.53;102902.00;10521685;28;20044;-80
2022/03/22 15:38:41;;;;;;;0.35;0.35;;;;;;;28.84;16.04;102894.00;10537437;28;20473;-79
2022/03/22 15:43:43;;;;;;;0.43;0.43;;;;;;;30.57;16.02;102883.81;10532564;28;20463;-81
2022/03/22 15:48:45;;;;;;;2.17;0.80;;;;;;;29.58;15.44;102880.97;10548251;28;20036;-79
2022/03/22 15:53:46;;;;;;;0.00;0.00;;;;;;;29.50;16.35;102877.59;10535043;28;20093;-80
2022/03/22 15:58:48;;;;;;;1.02;0.95;;;;;;;29.84;16.44;102875.03;10513225;28;20052;-80
2022/03/22 16:03:51;;;;;;;0.43;0.40;;;;;;;29.55;17.24;102871.28;10512475;28;20539;-79
2022/03/22 16:08:54;;;;;;;0.00;0.00;;;;;;;29.37;17.60;102872.59;10508162;28;20513;-80
2022/03/22 16:13:57;;;;;;;0.17;0.17;;;;;;;29.75;16.82;102867.28;10505388;28;20512;-81
2022/03/22 16:18:58;;;;;;;0.60;0.60;;;;;;;28.95;17.61;102869.91;10544736;27;20775;-81
2022/03/22 16:24:00;;;;;;;0.77;0.70;;;;;;;29.06;17.14;102872.31;10537576;28;20381;-82
2022/03/22 16:29:02;;;;;;;0.00;0.00;;;;;;;29.23;17.59;102874.59;10536093;28;20449;-81
2022/03/22 16:39:24;;;;;;;0.00;0.00;;;;;;;28.12;17.29;102877.63;10534925;28;20128;-81
2022/03/22 16:44:37;;;;;;;0.00;0.00;;;;;;;27.60;18.57;102880.16;10531448;28;20082;-81
2022/03/22 16:49:43;;;;;;;0.65;0.60;;;;;;;27.81;18.27;102878.94;10518093;28;20097;-81
2022/03/22 16:54:46;;;;;;;35.95;1.63;;;;;;;27.13;19.51;102876.34;10516956;28;20146;-80
2022/03/22 16:59:48;;;;;;;0.00;0.00;;;;;;;27.83;18.92;102882.44;10514764;28;20051;-81
2022/03/22 17:04:51;;;;;;;0.00;0.00;;;;;;;28.21;18.93;102876.56;10514706;28;20082;-80
2022/03/22 17:09:52;;;;;;;0.00;0.00;;;;;;;27.54;19.55;102881.09;10530496;28;20124;-80
2022/03/22 17:14:54;;;;;;;0.00;0.00;;;;;;;27.85;18.65;102880.66;10515790;28;20131;-80
2022/03/22 17:19:55;;;;;;;0.00;0.00;;;;;;;28.28;17.86;102867.59;10531980;28;20048;-81
2022/03/22 17:24:57;;;;;;;1.77;0.88;;;;;;;27.45;18.78;102885.66;10524482;28;20411;-80
2022/03/22 17:29:59;;;;;;;0.00;0.00;;;;;;;28.29;17.31;102874.66;10510216;28;20494;-81
2022/03/22 17:35:01;;;;;;;0.08;0.08;;;;;;;29.39;16.67;102878.72;10547445;28;20071;-81
2022/03/22 17:40:04;;;;;;;0.05;0.05;;;;;;;28.41;17.77;102873.56;10547182;28;20062;-81
2022/03/22 17:45:07;;;;;;;2.65;2.45;;;;;;;28.80;16.93;102882.56;10513026;28;20071;-81
2022/03/22 17:50:11;;;;;;;0.00;0.00;;;;;;;28.56;17.26;102877.72;10528345;28;20032;-81
2022/03/22 17:55:13;;;;;;;0.00;0.00;;;;;;;28.64;17.62;102883.72;10531169;28;20047;-81
2022/03/22 18:00:15;;;;;;;0.00;0.00;;;;;;;28.59;17.69;102883.84;10527114;28;20111;-81
2022/03/22 18:05:18;;;;;;;0.00;0.00;;;;;;;28.25;17.84;102894.19;10535006;28;20032;-81
2022/03/22 18:10:21;;;;;;;0.88;0.88;;;;;;;27.55;19.03;102893.44;10532687;28;20044;-80
2022/03/22 18:15:23;;;;;;;0.00;0.00;;;;;;;27.57;22.14;102895.22;10556887;27;20424;-80
2022/03/22 18:20:30;;;;;;;0.00;0.00;;;;;;;27.65;19.33;102898.63;10507373;28;20043;-80
2022/03/22 18:31:43;;;;;;;0.00;0.00;;;;;;;27.31;19.59;102899.94;10537125;28;20506;-81
2022/03/22 18:36:45;;;;;;;0.00;0.00;;;;;;;26.47;21.49;102899.97;10520260;28;20048;-80
2022/03/22 18:41:47;;;;;;;0.00;0.00;;;;;;;26.39;20.93;102917.66;10530938;28;20441;-80
2022/03/22 18:46:49;;;;;;;0.00;0.00;;;;;;;26.18;21.46;102913.41;10533227;28;20040;-81
2022/03/22 18:51:51;;;;;;;0.00;0.00;;;;;;;25.65;21.45;102919.88;10501765;28;20047;-80
2022/03/22 18:56:53;;;;;;;0.00;0.00;;;;;;;26.52;19.81;102914.00;10537792;28;20044;-80
2022/03/22 19:01:55;;;;;;;0.30;0.30;;;;;;;25.70;20.86;102919.00;10511831;28;20395;-80
2022/03/22 19:06:58;;;;;;;0.00;0.00;;;;;;;26.26;20.08;102920.38;10528173;28;20076;-79
2022/03/22 19:12:00;;;;;;;0.00;0.00;;;;;;;24.98;22.64;102928.91;10531961;28;20119;-81
2022/03/22 19:22:22;;;;;;;0.00;0.00;;;;;;;26.51;19.64;102930.75;10508449;28;20295;-81
2022/03/22 19:27:24;;;;;;;0.75;0.75;;;;;;;25.09;22.00;102934.16;10515956;28;20334;-81
2022/03/22 19:37:46;;;;;;;0.00;0.00;;;;;;;24.88;22.61;102933.34;10547371;28;20142;-80
2022/03/22 19:42:51;;;;;;;0.00;0.00;;;;;;;25.11;22.72;102932.41;10514915;28;20052;-80
2022/03/22 19:47:54;;;;;;;0.00;0.00;;;;;;;24.15;25.77;102943.00;10518404;28;20094;-80
2022/03/22 19:52:55;;;;;;;0.00;0.00;;;;;;;23.71;25.65;102937.59;10532644;28;20044;-80
2022/03/22 19:57:57;;;;;;;0.00;0.00;;;;;;;23.64;25.18;102945.47;10547099;28;20134;-80
2022/03/22 20:02:59;;;;;;;0.00;0.00;;;;;;;23.48;24.33;102947.16;10509662;28;20079;-80
2022/03/22 20:08:01;;;;;;;0.00;0.00;;;;;;;22.21;27.67;102948.84;10526150;28;20044;-80
2022/03/22 20:13:04;;;;;;;0.00;0.00;;;;;;;21.66;28.15;102961.38;10526867;28;20048;-79
2022/03/22 20:18:09;;;;;;;0.10;0.08;;;;;;;22.83;25.68;102950.25;10552197;28;20038;-80
2022/03/22 20:23:13;;;;;;;0.00;0.00;;;;;;;22.84;24.85;102956.38;10528745;28;20043;-80
2022/03/22 20:28:16;;;;;;;5.90;2.20;;;;;;;17.86;36.64;102976.16;10522155;28;20052;-79
2022/03/22 20:33:18;;;;;;;0.00;0.00;;;;;;;21.61;29.24;102956.94;10522472;28;20070;-79
2022/03/22 20:38:20;;;;;;;0.40;0.40;;;;;;;20.79;29.94;102963.56;10520544;28;20047;-80
2022/03/22 20:43:23;;;;;;;0.00;0.00;;;;;;;21.28;29.68;102968.69;10511022;28;20052;-80
2022/03/22 20:48:28;;;;;;;0.00;0.00;;;;;;;21.85;27.34;102962.47;10499625;28;20057;-80
2022/03/22 20:53:30;;;;;;;0.00;0.00;;;;;;;22.05;27.13;102959.19;10529379;28;20044;-79
2022/03/22 21:03:53;;;;;;;;;;;;;;;22.52;25.13;102957.91;10551313;28;20498;-79
2022/03/22 21:08:55;;;;;;;0.00;0.00;;;;;;;22.91;24.89;102958.19;10553186;28;19924;-79
2022/03/22 21:14:00;;;;;;;0.00;0.00;;;;;;;22.41;25.14;102965.69;10530548;28;20478;-80
2022/03/22 21:19:03;;;;;;;0.00;0.00;;;;;;;21.98;25.87;102967.84;10535164;28;20503;-80
2022/03/22 21:24:06;;;;;;;0.00;0.00;;;;;;;20.90;28.14;102965.50;10542603;27;20055;-80
2022/03/22 21:29:07;;;;;;;0.00;0.00;;;;;;;22.26;24.72;102968.13;10535237;28;20180;-80
2022/03/22 21:34:10;;;;;;;0.05;0.05;;;;;;;19.85;29.50;102971.47;10536700;28;20059;-80
2022/03/22 21:39:12;;;;;;;0.00;0.00;;;;;;;22.45;25.14;102958.72;10555673;28;20054;-80
2022/03/22 21:44:13;;;;;;;0.00;0.00;;;;;;;22.84;23.73;102961.63;10559169;28;20490;-80
2022/03/22 21:49:15;;;;;;;0.00;0.00;;;;;;;21.34;26.56;102964.41;10520596;28;20441;-80
2022/03/22 21:54:25;;;;;;;0.00;0.00;;;;;;;22.09;25.77;102966.22;10536053;28;20061;-80
2022/03/22 21:59:26;;;;;;;0.00;0.00;;;;;;;22.22;25.86;102963.72;10535592;28;20127;-80
2022/03/22 22:04:28;;;;;;;0.00;0.00;;;;;;;21.27;28.21;102966.91;10535513;28;20090;-80
2022/03/22 22:09:30;;;;;;;0.00;0.00;;;;;;;21.70;26.97;102964.91;10520595;28;20483;-80
2022/03/22 22:14:31;;;;;;;0.00;0.00;;;;;;;21.61;26.25;102964.78;10520158;28;20087;-80
2022/03/22 22:19:33;;;;;;;0.00;0.00;;;;;;;21.52;26.17;102958.53;10520855;28;20090;-80
2022/03/22 22:24:34;;;;;;;0.00;0.00;;;;;;;21.07;26.95;102957.03;10515242;28;20071;-80
2022/03/22 22:29:36;;;;;;;0.00;0.00;;;;;;;21.02;26.63;102958.72;10522039;28;20368;-80
2022/03/22 22:34:39;;;;;;;0.00;0.00;;;;;;;20.58;27.38;102954.50;10516682;28;20056;-80
2022/03/22 22:39:41;;;;;;;0.00;0.00;;;;;;;20.17;28.25;102958.13;10535904;28;20037;-80
2022/03/22 22:44:43;;;;;;;0.00;0.00;;;;;;;21.04;26.17;102946.50;10512102;28;20427;-80
2022/03/22 22:49:45;;;;;;;0.00;0.00;;;;;;;20.35;26.97;102957.59;10534326;28;20487;-80
2022/03/22 22:54:46;;;;;;;0.00;0.00;;;;;;;20.65;26.75;102950.25;10520263;28;20072;-80
2022/03/22 22:59:48;;;;;;;0.00;0.00;;;;;;;19.48;29.46;102949.75;10537738;28;20363;-80
2022/03/22 23:04:50;;;;;;;0.00;0.00;;;;;;;18.41;30.65;102960.25;10517447;28;20039;-80
2022/03/22 23:10:15;;;;;;;0.00;0.00;;;;;;;18.26;31.44;102955.53;10536935;28;20040;-80
2022/03/22 23:15:16;;;;;;;0.00;0.00;;;;;;;18.25;31.18;102956.38;10543300;28;20105;-80
2022/03/22 23:20:18;;;;;;;0.00;0.00;;;;;;;19.34;29.32;102947.72;10520692;28;20059;-80
2022/03/22 23:25:20;;;;;;;0.00;0.00;;;;;;;19.40;28.66;102946.97;10535994;28;20105;-80
2022/03/22 23:30:21;;;;;;;0.00;0.00;;;;;;;19.14;28.81;102943.78;10524713;28;20445;-80
2022/03/22 23:35:24;;;;;;;0.00;0.00;;;;;;;19.64;28.80;102949.22;10520858;28;20487;-80
2022/03/22 23:40:26;;;;;;;0.70;0.70;;;;;;;17.66;31.84;102952.09;10516088;28;20040;-79
2022/03/22 23:45:28;;;;;;;0.00;0.00;;;;;;;17.69;31.76;102946.97;10517993;28;20072;-80
2022/03/22 23:50:29;;;;;;;0.00;0.00;;;;;;;17.65;32.52;102947.72;10527553;28;20070;-80
2022/03/22 23:55:31;;;;;;;0.00;0.00;;;;;;;18.96;30.13;102942.50;10534281;28;20079;-80
